createdAt,value
2018-05-26T00:00:23.042Z,18.32
2018-05-26T00:03:25.567Z,18.27
2018-05-26T00:06:28.021Z,18.30
2018-05-26T00:09:30.503Z,18.18
2018-05-26T00:12:33.013Z,18.07
2018-05-26T00:15:35.597Z,18.07
2018-05-26T00:18:38.054Z,18.00
2018-05-26T00:21:40.637Z,17.88
2018-05-26T00:24:43.197Z,17.72
2018-05-26T00:27:45.664Z,17.66
2018-05-26T00:30:48.122Z,17.46
2018-05-26T00:33:50.590Z,17.32
2018-05-26T00:36:53.061Z,17.19
2018-05-26T00:39:55.536Z,17.11
2018-05-26T00:42:58.006Z,17.06
2018-05-26T00:46:00.518Z,17.00
2018-05-26T00:49:02.988Z,16.95
2018-05-26T00:52:05.513Z,16.79
2018-05-26T00:55:08.115Z,16.64
2018-05-26T00:58:10.622Z,16.50
2018-05-26T01:01:13.073Z,16.43
2018-05-26T01:04:15.569Z,16.33
2018-05-26T01:07:18.046Z,16.27
2018-05-26T01:10:20.572Z,16.26
2018-05-26T01:13:23.134Z,16.21
2018-05-26T01:16:25.622Z,16.17
2018-05-26T01:19:28.118Z,16.18
2018-05-26T01:22:30.580Z,16.13
2018-05-26T01:25:33.083Z,16.08
2018-05-26T01:28:35.628Z,16.01
2018-05-26T01:31:38.072Z,16.01
2018-05-26T01:34:40.551Z,15.99
2018-05-26T01:37:43.068Z,15.95
2018-05-26T01:40:45.538Z,15.80
2018-05-26T01:43:48.038Z,15.69
2018-05-26T01:46:50.551Z,15.56
2018-05-26T01:49:53.018Z,15.46
2018-05-26T01:52:55.502Z,15.37
2018-05-26T01:55:57.979Z,15.34
2018-05-26T01:59:00.587Z,15.27
2018-05-26T02:02:03.064Z,15.21
2018-05-26T02:05:05.624Z,15.15
2018-05-26T02:08:08.080Z,15.07
2018-05-26T02:11:10.524Z,15.00
2018-05-26T02:14:13.028Z,14.95
2018-05-26T02:17:15.570Z,14.85
2018-05-26T02:20:18.004Z,14.82
2018-05-26T02:23:20.592Z,14.73
2018-05-26T02:26:23.169Z,14.64
2018-05-26T02:29:25.723Z,14.60
2018-05-26T02:32:28.160Z,14.65
2018-05-26T02:35:30.642Z,14.67
2018-05-26T02:38:33.100Z,14.64
2018-05-26T02:41:35.664Z,14.56
2018-05-26T02:44:38.169Z,14.52
2018-05-26T02:47:40.710Z,14.52
2018-05-26T02:50:43.241Z,14.54
2018-05-26T02:53:45.742Z,14.56
2018-05-26T02:56:48.278Z,14.47
2018-05-26T02:59:50.737Z,14.44
2018-05-26T03:02:53.210Z,14.39
2018-05-26T03:06:01.284Z,14.36
2018-05-26T03:09:09.292Z,14.33
2018-05-26T03:12:17.288Z,14.25
2018-05-26T03:15:19.310Z,14.19
2018-05-26T03:18:21.793Z,14.23
2018-05-26T03:21:24.333Z,14.34
2018-05-26T03:24:26.827Z,14.45
2018-05-26T03:27:29.308Z,14.39
2018-05-26T03:30:31.778Z,14.39
2018-05-26T03:33:34.285Z,14.52
2018-05-26T03:36:36.840Z,14.75
2018-05-26T03:39:39.397Z,14.98
2018-05-26T03:42:41.859Z,15.32
2018-05-26T03:45:44.360Z,15.85
2018-05-26T03:48:46.864Z,16.03
2018-05-26T03:51:49.338Z,16.39
2018-05-26T03:58:55.619Z,17.44
2018-05-26T04:01:58.108Z,17.76
2018-05-26T04:05:00.559Z,17.97
2018-05-26T04:08:03.003Z,18.41
2018-05-26T04:11:05.469Z,18.82
2018-05-26T04:14:07.955Z,19.53
2018-05-26T04:17:10.388Z,19.98
2018-05-26T04:20:12.884Z,20.44
2018-05-26T04:23:15.350Z,20.45
2018-05-26T04:26:17.799Z,20.53
2018-05-26T04:29:20.478Z,20.66
2018-05-26T04:32:22.933Z,20.56
2018-05-26T04:35:25.472Z,20.69
2018-05-26T04:38:27.914Z,20.79
2018-05-26T04:41:30.347Z,20.74
2018-05-26T04:44:32.821Z,21.23
2018-05-26T04:47:35.352Z,21.28
2018-05-26T04:50:37.899Z,21.27
2018-05-26T04:53:40.344Z,21.95
2018-05-26T04:56:42.824Z,22.03
2018-05-26T04:59:45.284Z,22.72
2018-05-26T05:02:47.765Z,23.28
2018-05-26T05:05:50.202Z,24.24
2018-05-26T05:08:52.689Z,24.16
2018-05-26T05:11:55.225Z,24.63
2018-05-26T05:14:57.701Z,24.70
2018-05-26T05:18:00.201Z,25.46
2018-05-26T05:21:02.713Z,25.40
2018-05-26T05:24:05.215Z,25.93
2018-05-26T05:27:07.778Z,25.49
2018-05-26T05:30:10.285Z,26.37
2018-05-26T05:33:12.771Z,25.89
2018-05-26T05:36:15.240Z,24.49
2018-05-26T05:39:17.783Z,24.41
2018-05-26T05:42:20.245Z,23.80
2018-05-26T05:45:22.710Z,24.63
2018-05-26T05:48:25.223Z,25.35
2018-05-26T05:51:27.729Z,26.10
2018-05-26T05:54:30.304Z,26.72
2018-05-26T05:57:32.891Z,27.36
2018-05-26T06:00:35.355Z,28.62
2018-05-26T06:03:37.874Z,28.19
2018-05-26T06:06:40.436Z,27.34
2018-05-26T06:09:42.972Z,27.50
2018-05-26T06:12:45.460Z,28.05
2018-05-26T06:15:47.980Z,28.09
2018-05-26T06:18:50.461Z,27.23
2018-05-26T06:21:52.945Z,27.36
2018-05-26T06:24:55.505Z,28.18
2018-05-26T06:27:57.947Z,28.14
2018-05-26T06:31:00.465Z,28.54
2018-05-26T06:34:02.992Z,27.21
2018-05-26T06:37:05.584Z,28.03
2018-05-26T06:40:08.106Z,28.02
2018-05-26T06:43:10.581Z,28.95
2018-05-26T06:46:13.040Z,28.47
2018-05-26T06:49:15.510Z,28.20
2018-05-26T06:52:17.996Z,27.95
2018-05-26T06:55:20.588Z,27.09
2018-05-26T06:58:23.065Z,25.44
2018-05-26T07:01:25.533Z,24.21
2018-05-26T07:04:28.107Z,23.44
2018-05-26T07:07:30.572Z,23.14
2018-05-26T07:10:33.075Z,23.43
2018-05-26T07:13:35.592Z,23.26
2018-05-26T07:16:38.155Z,22.91
2018-05-26T07:19:40.655Z,22.94
2018-05-26T07:22:43.147Z,23.00
2018-05-26T07:25:45.671Z,23.13
2018-05-26T07:28:48.140Z,22.50
2018-05-26T07:31:50.635Z,22.84
2018-05-26T07:34:53.122Z,22.78
2018-05-26T07:37:55.576Z,22.67
2018-05-26T07:40:58.023Z,23.12
2018-05-26T07:44:00.515Z,23.23
2018-05-26T07:47:03.063Z,23.02
2018-05-26T07:50:05.626Z,22.98
2018-05-26T07:53:08.114Z,23.07
2018-05-26T07:56:10.596Z,23.35
2018-05-26T07:59:13.059Z,23.57
2018-05-26T08:02:15.576Z,23.23
2018-05-26T08:05:18.022Z,22.82
2018-05-26T08:08:20.597Z,22.81
2018-05-26T08:11:23.052Z,23.05
2018-05-26T08:14:25.546Z,23.17
2018-05-26T08:17:28.124Z,23.27
2018-05-26T08:20:30.538Z,23.30
2018-05-26T08:23:33.093Z,23.22
2018-05-26T08:26:35.523Z,23.17
2018-05-26T08:29:38.044Z,23.29
2018-05-26T08:32:40.543Z,23.29
2018-05-26T08:35:43.040Z,23.54
2018-05-26T08:38:45.544Z,23.58
2018-05-26T08:41:48.073Z,23.64
2018-05-26T08:44:50.573Z,23.88
2018-05-26T08:47:53.123Z,24.03
2018-05-26T08:50:55.622Z,24.20
2018-05-26T08:53:58.119Z,24.28
2018-05-26T08:57:00.635Z,24.12
2018-05-26T09:00:03.184Z,24.18
2018-05-26T09:03:05.673Z,24.21
2018-05-26T09:06:08.104Z,23.92
2018-05-26T09:09:10.577Z,24.17
2018-05-26T09:12:13.049Z,24.55
2018-05-26T09:15:15.524Z,24.68
2018-05-26T09:18:18.014Z,24.86
2018-05-26T09:21:20.516Z,24.65
2018-05-26T09:24:23.046Z,24.78
2018-05-26T09:27:25.579Z,24.80
2018-05-26T09:30:28.333Z,24.70
2018-05-26T09:33:30.804Z,24.75
2018-05-26T09:36:33.251Z,25.21
2018-05-26T09:39:35.749Z,25.09
2018-05-26T09:42:38.305Z,25.21
2018-05-26T09:45:40.903Z,25.35
2018-05-26T09:48:43.532Z,25.44
2018-05-26T09:51:46.002Z,25.42
2018-05-26T09:54:48.470Z,25.40
2018-05-26T09:57:51.017Z,25.39
2018-05-26T10:00:53.517Z,25.25
2018-05-26T10:03:56.003Z,25.43
2018-05-26T10:06:58.518Z,25.58
2018-05-26T10:10:01.143Z,25.57
2018-05-26T10:13:03.585Z,25.69
2018-05-26T10:16:06.076Z,25.81
2018-05-26T10:19:08.652Z,25.68
2018-05-26T10:22:11.187Z,25.65
2018-05-26T10:25:13.766Z,25.73
2018-05-26T10:28:16.260Z,25.65
2018-05-26T10:31:18.803Z,25.76
2018-05-26T10:34:21.289Z,25.83
2018-05-26T10:37:23.825Z,25.81
2018-05-26T10:40:26.324Z,25.71
2018-05-26T10:43:28.850Z,25.92
2018-05-26T10:46:31.435Z,25.96
2018-05-26T10:49:33.955Z,26.15
2018-05-26T10:52:36.551Z,26.32
2018-05-26T10:55:39.054Z,26.28
2018-05-26T10:58:41.639Z,26.31
2018-05-26T11:01:44.218Z,26.35
2018-05-26T11:04:47.567Z,26.48
2018-05-26T11:07:50.139Z,26.41
2018-05-26T11:10:52.624Z,26.57
2018-05-26T11:13:55.118Z,26.82
2018-05-26T11:16:57.563Z,26.97
2018-05-26T11:20:00.025Z,26.84
2018-05-26T11:23:02.573Z,26.82
2018-05-26T11:26:05.309Z,27.09
2018-05-26T11:29:07.651Z,27.35
2018-05-26T11:32:10.149Z,27.25
2018-05-26T11:35:12.737Z,27.08
2018-05-26T11:38:15.476Z,27.01
2018-05-26T11:41:18.076Z,27.26
2018-05-26T11:44:20.619Z,27.16
2018-05-26T11:47:23.148Z,26.97
2018-05-26T11:50:25.651Z,27.00
2018-05-26T11:53:29.039Z,27.12
2018-05-26T11:56:35.804Z,27.09
2018-05-26T11:59:41.084Z,26.87
2018-05-26T12:02:43.534Z,27.23
2018-05-26T12:05:46.118Z,27.00
2018-05-26T12:08:48.620Z,26.45
2018-05-26T12:11:51.087Z,26.49
2018-05-26T12:14:53.629Z,26.47
2018-05-26T12:17:56.085Z,26.91
2018-05-26T12:20:58.629Z,27.47
2018-05-26T12:24:01.130Z,27.53
2018-05-26T12:27:03.763Z,27.09
2018-05-26T12:30:08.208Z,26.71
2018-05-26T12:33:10.696Z,26.61
2018-05-26T12:36:13.219Z,26.30
2018-05-26T12:39:15.679Z,26.11
2018-05-26T12:42:18.209Z,26.09
2018-05-26T12:45:20.831Z,25.94
2018-05-26T12:48:23.347Z,25.94
2018-05-26T12:51:26.478Z,26.05
2018-05-26T12:54:29.017Z,25.87
2018-05-26T12:57:31.574Z,26.17
2018-05-26T13:00:34.080Z,26.11
2018-05-26T13:03:36.534Z,25.95
2018-05-26T13:06:39.016Z,26.24
2018-05-26T13:09:41.511Z,26.25
2018-05-26T13:12:44.056Z,26.20
2018-05-26T13:15:46.534Z,26.64
2018-05-26T13:18:49.069Z,27.21
2018-05-26T13:21:51.567Z,27.26
2018-05-26T13:24:54.061Z,27.29
2018-05-26T13:27:56.517Z,27.46
2018-05-26T13:30:59.005Z,27.70
2018-05-26T13:34:01.455Z,27.94
2018-05-26T13:37:04.009Z,27.85
2018-05-26T13:40:06.462Z,27.88
2018-05-26T13:43:09.100Z,27.81
2018-05-26T13:46:11.580Z,27.71
2018-05-26T13:49:14.131Z,27.85
2018-05-26T13:52:16.634Z,27.98
2018-05-26T13:55:19.144Z,27.91
2018-05-26T13:58:21.647Z,27.84
2018-05-26T14:01:24.127Z,28.09
2018-05-26T14:04:26.657Z,28.19
2018-05-26T14:07:29.169Z,27.86
2018-05-26T14:10:31.662Z,27.85
2018-05-26T14:13:34.154Z,27.73
2018-05-26T14:16:36.752Z,27.61
2018-05-26T14:19:39.246Z,27.72
2018-05-26T14:22:41.773Z,27.55
2018-05-26T14:25:44.242Z,27.56
2018-05-26T14:28:46.771Z,27.88
2018-05-26T14:31:49.262Z,27.87
2018-05-26T14:34:51.711Z,28.06
2018-05-26T14:37:54.267Z,28.05
2018-05-26T14:40:56.841Z,27.87
2018-05-26T14:43:59.346Z,27.79
2018-05-26T14:47:01.821Z,28.04
2018-05-26T14:50:04.415Z,27.96
2018-05-26T14:53:06.925Z,27.82
2018-05-26T14:56:09.425Z,27.68
2018-05-26T14:59:12.004Z,27.70
2018-05-26T15:02:14.500Z,27.73
2018-05-26T15:05:17.027Z,27.96
2018-05-26T15:08:19.515Z,27.89
2018-05-26T15:11:22.115Z,27.75
2018-05-26T15:14:24.622Z,27.93
2018-05-26T15:17:27.164Z,28.01
2018-05-26T15:20:29.686Z,28.10
2018-05-26T15:23:33.598Z,28.08
2018-05-26T15:26:36.086Z,28.02
2018-05-26T15:29:38.631Z,27.95
2018-05-26T15:32:41.116Z,28.12
2018-05-26T15:35:43.621Z,27.89
2018-05-26T15:38:46.156Z,27.98
2018-05-26T15:41:48.627Z,27.52
2018-05-26T15:44:51.153Z,27.85
2018-05-26T15:47:53.671Z,27.76
2018-05-26T15:50:56.118Z,27.79
2018-05-26T15:53:58.655Z,27.70
2018-05-26T15:57:01.145Z,27.69
2018-05-26T16:00:03.620Z,27.59
2018-05-26T16:03:06.114Z,27.58
2018-05-26T16:06:08.611Z,27.66
2018-05-26T16:09:11.163Z,27.66
2018-05-26T16:12:13.673Z,27.64
2018-05-26T16:15:16.173Z,27.60
2018-05-26T16:18:18.657Z,27.64
2018-05-26T16:21:21.142Z,27.45
2018-05-26T16:24:23.705Z,27.38
2018-05-26T16:27:26.176Z,27.28
2018-05-26T16:30:28.698Z,27.23
2018-05-26T16:33:31.208Z,27.26
2018-05-26T16:36:33.741Z,27.34
2018-05-26T16:39:36.231Z,27.26
2018-05-26T16:42:38.757Z,27.25
2018-05-26T16:45:41.247Z,27.32
2018-05-26T16:48:43.759Z,27.37
2018-05-26T16:51:46.225Z,27.73
2018-05-26T16:54:48.697Z,27.93
2018-05-26T16:57:51.207Z,28.49
2018-05-26T17:00:53.759Z,29.22
2018-05-26T17:03:56.363Z,30.49
2018-05-26T17:06:58.857Z,31.57
2018-05-26T17:10:01.317Z,31.93
2018-05-26T17:13:03.824Z,32.23
2018-05-26T17:16:06.282Z,32.05
2018-05-26T17:19:08.799Z,32.48
2018-05-26T17:22:11.290Z,33.22
2018-05-26T17:25:13.807Z,32.82
2018-05-26T17:28:16.275Z,32.82
2018-05-26T17:31:18.921Z,33.03
2018-05-26T17:34:21.413Z,32.84
2018-05-26T17:37:23.919Z,32.50
2018-05-26T17:40:26.510Z,32.11
2018-05-26T17:43:29.116Z,32.44
2018-05-26T17:46:31.601Z,32.07
2018-05-26T17:49:34.210Z,31.94
2018-05-26T17:52:36.734Z,31.50
2018-05-26T17:55:39.258Z,31.35
2018-05-26T17:58:41.774Z,31.36
2018-05-26T18:01:44.269Z,31.36
2018-05-26T18:04:46.849Z,31.42
2018-05-26T18:07:49.408Z,31.36
2018-05-26T18:10:51.910Z,30.82
2018-05-26T18:13:54.396Z,29.61
2018-05-26T18:16:56.864Z,28.19
2018-05-26T18:19:59.380Z,26.93
2018-05-26T18:23:01.994Z,26.23
2018-05-26T18:26:04.670Z,25.67
2018-05-26T18:29:07.160Z,25.33
2018-05-26T18:32:09.716Z,25.22
2018-05-26T18:35:12.189Z,24.97
2018-05-26T18:38:14.748Z,24.73
2018-05-26T18:41:17.231Z,24.46
2018-05-26T18:44:19.716Z,24.24
2018-05-26T18:47:22.275Z,24.08
2018-05-26T18:50:24.756Z,23.88
2018-05-26T18:53:27.343Z,23.62
2018-05-26T18:56:30.073Z,23.39
2018-05-26T18:59:32.730Z,23.29
2018-05-26T19:02:35.245Z,23.17
2018-05-26T19:05:37.777Z,22.99
2018-05-26T19:08:40.283Z,22.87
2018-05-26T19:11:42.744Z,22.70
2018-05-26T19:14:45.301Z,22.61
2018-05-26T19:17:47.798Z,22.56
2018-05-26T19:20:50.400Z,22.44
2018-05-26T19:23:52.960Z,22.41
2018-05-26T19:26:55.488Z,22.36
2018-05-26T19:29:58.044Z,22.29
2018-05-26T19:33:00.620Z,22.35
2018-05-26T19:36:03.277Z,22.35
2018-05-26T19:39:05.826Z,22.26
2018-05-26T19:42:08.337Z,21.99
2018-05-26T19:45:10.797Z,22.02
2018-05-26T19:48:13.277Z,21.97
2018-05-26T19:51:15.704Z,21.91
2018-05-26T19:54:18.274Z,21.74
2018-05-26T19:57:20.850Z,21.74
2018-05-26T20:00:23.371Z,21.80
2018-05-26T20:03:25.923Z,21.80
2018-05-26T20:06:28.722Z,21.88
2018-05-26T20:09:31.252Z,21.95
2018-05-26T20:12:33.829Z,21.92
2018-05-26T20:15:36.320Z,22.04
2018-05-26T20:18:38.816Z,21.94
2018-05-26T20:21:41.259Z,22.10
2018-05-26T20:24:43.776Z,21.93
2018-05-26T20:27:46.285Z,21.79
2018-05-26T20:30:48.925Z,21.47
2018-05-26T20:33:51.411Z,21.30
2018-05-26T20:36:53.899Z,21.23
2018-05-26T20:39:56.392Z,21.11
2018-05-26T20:42:58.806Z,20.94
2018-05-26T20:46:01.366Z,20.80
2018-05-26T20:49:03.847Z,20.66
2018-05-26T20:52:06.362Z,20.69
2018-05-26T20:55:08.867Z,20.66
2018-05-26T20:58:11.372Z,20.54
2018-05-26T21:01:13.915Z,20.47
2018-05-26T21:04:16.399Z,20.57
2018-05-26T21:07:18.879Z,20.37
2018-05-26T21:10:21.401Z,20.34
2018-05-26T21:13:24.952Z,20.32
2018-05-26T21:16:31.995Z,20.17
2018-05-26T21:19:36.555Z,20.05
2018-05-26T21:22:40.220Z,20.05
2018-05-26T21:25:42.793Z,19.89
2018-05-26T21:28:45.258Z,19.79
2018-05-26T21:31:48.319Z,19.76
2018-05-26T21:34:50.906Z,19.59
2018-05-26T21:37:53.504Z,19.44
2018-05-26T21:40:55.993Z,19.35
2018-05-26T21:43:59.698Z,19.28
2018-05-26T21:47:02.292Z,19.20
2018-05-26T21:50:04.751Z,19.14
2018-05-26T21:53:07.255Z,19.23
2018-05-26T21:56:10.990Z,19.16
2018-05-26T21:59:13.562Z,19.07
2018-05-26T22:02:16.076Z,18.99
2018-05-26T22:05:18.602Z,19.02
2018-05-26T22:08:21.219Z,18.99
2018-05-26T22:11:23.691Z,18.89
2018-05-26T22:14:26.235Z,18.82
2018-05-26T22:17:28.830Z,18.84
2018-05-26T22:20:31.416Z,18.80
2018-05-26T22:23:33.922Z,18.85
2018-05-26T22:26:36.407Z,18.72
2018-05-26T22:29:38.864Z,18.63
2018-05-26T22:32:41.431Z,18.65
2018-05-26T22:35:43.920Z,18.67
2018-05-26T22:38:46.433Z,18.56
2018-05-26T22:41:48.971Z,18.47
2018-05-26T22:44:51.407Z,18.52
2018-05-26T22:47:53.910Z,18.50
2018-05-26T22:50:56.415Z,18.34
2018-05-26T22:53:58.898Z,18.19
2018-05-26T22:57:01.418Z,18.12
2018-05-26T23:00:03.891Z,18.15
2018-05-26T23:03:06.358Z,18.08
2018-05-26T23:06:08.846Z,17.97
2018-05-26T23:09:11.320Z,18.05
2018-05-26T23:12:13.832Z,17.99
2018-05-26T23:15:16.391Z,17.99
2018-05-26T23:18:18.852Z,17.94
2018-05-26T23:21:21.330Z,17.93
2018-05-26T23:24:23.808Z,17.82
2018-05-26T23:27:26.296Z,17.75
2018-05-26T23:30:28.780Z,17.78
2018-05-26T23:33:31.358Z,17.64
2018-05-26T23:36:33.852Z,17.55
2018-05-26T23:39:36.332Z,17.56
2018-05-26T23:42:38.835Z,17.52
2018-05-26T23:45:41.300Z,17.59
2018-05-26T23:48:43.775Z,17.59
2018-05-26T23:51:46.234Z,17.60
2018-05-26T23:54:48.777Z,17.64
2018-05-26T23:57:51.338Z,17.50
